Time;durP1;ratioP1;P1;durP2;ratioP2;P2;SDS_P1;SDS_P2;PMS_P1;PMS_P2;Temp;Humidity;BMP_temperature;BMP_pressure;BME280_temperature;BME280_humidity;BME280_pressure;Samples;Min_cycle;Max_cycle;Signal;HPM_P1;HPM_P2
2022/03/11 00:00:58;;;;;;;6.40;3.17;;;;;;;7.97;92.44;99088.31;5048332;28;20025;-78
2022/03/11 00:03:23;;;;;;;12.38;2.40;;;;;;;8.03;92.51;99101.72;5032165;28;20040;-79
2022/03/11 00:05:50;;;;;;;11.93;2.50;;;;;;;8.03;93.11;99092.88;5031133;28;20032;-79
2022/03/11 00:08:16;;;;;;;4.93;1.77;;;;;;;8.01;92.28;99092.22;5059625;28;20055;-79
2022/03/11 00:10:42;;;;;;;10.52;2.45;;;;;;;7.99;92.76;99084.44;5050087;28;20483;-79
2022/03/11 00:13:08;;;;;;;4.53;2.25;;;;;;;7.97;92.82;99075.75;5027002;28;20024;-80
2022/03/11 00:15:34;;;;;;;12.45;2.30;;;;;;;8.00;92.94;99069.19;5058802;28;20033;-78
2022/03/11 00:18:00;;;;;;;6.75;1.45;;;;;;;7.93;93.01;99069.16;5046306;28;20032;-80
2022/03/11 00:20:26;;;;;;;9.45;1.90;;;;;;;7.91;93.06;99065.84;5036696;28;20102;-79
2022/03/11 00:22:52;;;;;;;4.15;1.85;;;;;;;7.90;92.55;99062.34;5065514;28;20036;-79
2022/03/11 00:25:19;;;;;;;8.27;2.13;;;;;;;7.85;92.05;99046.06;5040730;28;20601;-80
2022/03/11 00:27:45;;;;;;;8.35;3.13;;;;;;;7.92;92.63;99065.66;5064159;28;20020;-79
2022/03/11 00:30:11;;;;;;;9.70;2.70;;;;;;;7.93;92.09;99056.59;5064071;28;20036;-78
2022/03/11 00:32:38;;;;;;;2.97;1.48;;;;;;;7.91;91.88;99052.47;5054639;28;20051;-79
2022/03/11 00:35:08;;;;;;;7.32;2.42;;;;;;;7.84;92.49;99048.94;5043734;28;20296;-79
2022/03/11 00:37:35;;;;;;;5.63;1.38;;;;;;;7.81;92.30;99042.16;5029196;28;20052;-79
2022/03/11 00:40:00;;;;;;;5.78;1.33;;;;;;;7.83;92.00;99037.44;5063433;28;20024;-78
2022/03/11 00:42:27;;;;;;;6.53;3.60;;;;;;;7.91;91.82;99023.88;5046211;28;20131;-78
2022/03/11 00:44:52;;;;;;;7.15;1.50;;;;;;;7.88;91.40;99021.56;5023372;28;20078;-79
2022/03/11 00:47:18;;;;;;;7.45;1.40;;;;;;;7.88;91.82;99037.63;5057354;28;20872;-79
2022/03/11 00:49:44;;;;;;;9.45;1.50;;;;;;;7.82;92.29;99009.00;5060608;28;20291;-77
2022/03/11 00:52:10;;;;;;;2.30;0.90;;;;;;;7.72;93.61;99012.03;5022851;28;20025;-80
2022/03/11 00:54:36;;;;;;;7.85;2.70;;;;;;;7.70;94.07;99000.75;5040411;28;20020;-79
2022/03/11 00:57:01;;;;;;;5.47;1.40;;;;;;;7.76;94.11;99006.31;5041697;28;20032;-80
2022/03/11 00:59:27;;;;;;;10.50;2.63;;;;;;;7.67;94.16;98989.59;5039831;28;20024;-79
2022/03/11 01:01:52;;;;;;;8.98;2.22;;;;;;;7.64;95.35;98992.69;5042920;28;20024;-79
2022/03/11 01:04:18;;;;;;;8.20;2.53;;;;;;;7.53;96.66;98977.22;5033125;28;20440;-79
2022/03/11 01:06:44;;;;;;;6.18;3.53;;;;;;;7.38;97.68;98970.16;5027808;28;20102;-79
2022/03/11 01:09:10;;;;;;;12.45;1.85;;;;;;;7.37;97.92;98963.16;5046157;28;20039;-78
2022/03/11 01:11:36;;;;;;;13.65;3.10;;;;;;;7.30;99.00;98959.63;5028799;28;20509;-79
2022/03/11 01:14:02;;;;;;;10.68;4.18;;;;;;;7.27;100.00;98965.38;5026564;28;20149;-79
2022/03/11 01:16:28;;;;;;;9.18;2.63;;;;;;;7.08;100.00;98937.53;5031167;28;20494;-80
2022/03/11 01:18:57;;;;;;;12.10;2.53;;;;;;;7.00;100.00;98932.34;5041653;28;20072;-79
2022/03/11 01:21:22;;;;;;;9.10;2.10;;;;;;;7.15;100.00;98949.06;5028937;28;20510;-79
2022/03/11 01:23:51;;;;;;;12.57;2.65;;;;;;;7.10;100.00;98956.84;5058314;28;20103;-80
2022/03/11 01:26:17;;;;;;;20.33;3.15;;;;;;;7.24;100.00;98937.19;5030641;28;20169;-79
2022/03/11 01:28:43;;;;;;;12.88;2.50;;;;;;;7.25;100.00;98938.00;5064353;28;20170;-79
2022/03/11 01:31:11;;;;;;;9.82;2.33;;;;;;;7.39;99.63;98929.03;5047798;28;20529;-78
2022/03/11 01:33:43;;;;;;;9.07;2.40;;;;;;;7.47;99.57;98941.41;5047893;28;20109;-79
2022/03/11 01:36:10;;;;;;;5.95;1.38;;;;;;;7.50;98.35;98924.94;5047832;28;20123;-79
2022/03/11 01:38:36;;;;;;;10.13;2.08;;;;;;;7.41;99.13;98931.47;5047909;28;20020;-79
2022/03/11 01:41:02;;;;;;;8.93;1.45;;;;;;;7.36;99.84;98928.63;5059910;28;20040;-78
2022/03/11 01:43:28;;;;;;;7.05;1.77;;;;;;;7.35;98.81;98919.75;5041099;28;20048;-80
2022/03/11 01:45:54;;;;;;;16.20;1.75;;;;;;;7.35;98.98;98910.91;5053963;28;20037;-79
2022/03/11 01:48:20;;;;;;;16.13;2.67;;;;;;;7.33;99.25;98915.63;5056416;28;20029;-80
2022/03/11 01:50:45;;;;;;;15.60;2.53;;;;;;;7.23;99.67;98905.31;5040794;28;20037;-79
2022/03/11 01:53:13;;;;;;;6.97;1.58;;;;;;;6.97;100.00;98898.81;5043573;28;20101;-80
2022/03/11 01:55:39;;;;;;;20.52;2.20;;;;;;;6.98;100.00;98907.66;5059633;28;20614;-80
2022/03/11 01:58:06;;;;;;;15.27;2.10;;;;;;;6.79;100.00;98885.97;5063797;28;20099;-79
2022/03/11 02:00:35;;;;;;;7.72;2.10;;;;;;;6.74;100.00;98893.75;5051555;28;20141;-80
2022/03/11 02:03:01;;;;;;;9.63;2.00;;;;;;;6.69;100.00;98896.19;5064827;28;20118;-79
2022/03/11 02:05:28;;;;;;;9.80;1.60;;;;;;;6.56;100.00;98880.94;5032581;28;20208;-78
2022/03/11 02:07:53;;;;;;;5.93;1.95;;;;;;;6.57;100.00;98887.09;5064943;28;20038;-79
2022/03/11 02:10:21;;;;;;;11.93;2.22;;;;;;;6.50;100.00;98903.06;5050608;28;20085;-79
2022/03/11 02:12:47;;;;;;;8.00;1.80;;;;;;;6.44;100.00;98871.81;5030595;28;20123;-79
2022/03/11 02:15:12;;;;;;;8.45;2.28;;;;;;;6.33;100.00;98872.34;5049785;28;20386;-79
2022/03/11 02:17:38;;;;;;;16.45;2.42;;;;;;;6.34;100.00;98853.47;5049578;28;20048;-79
2022/03/11 02:20:05;;;;;;;9.40;1.92;;;;;;;6.39;100.00;98860.88;5045353;28;20032;-78
2022/03/11 02:22:36;;;;;;;6.88;1.50;;;;;;;6.36;100.00;98861.28;5044764;28;20131;-80
2022/03/11 02:25:05;;;;;;;10.35;1.92;;;;;;;6.30;100.00;98851.41;5048011;28;20055;-78
2022/03/11 02:27:35;;;;;;;9.75;2.20;;;;;;;6.26;100.00;98844.78;5046814;28;20045;-78
2022/03/11 02:30:01;;;;;;;6.30;1.90;;;;;;;6.30;100.00;98846.06;5063931;28;20032;-78
2022/03/11 02:32:27;;;;;;;8.43;2.28;;;;;;;6.20;100.00;98833.06;5051571;28;20040;-78
2022/03/11 02:34:52;;;;;;;10.65;1.98;;;;;;;6.20;100.00;98832.22;5031898;28;20129;-79
2022/03/11 02:37:18;;;;;;;5.45;1.70;;;;;;;6.19;100.00;98819.88;5062967;28;20055;-79
2022/03/11 02:39:44;;;;;;;11.65;1.70;;;;;;;6.20;100.00;98826.91;5061715;28;20033;-79
2022/03/11 02:42:10;;;;;;;4.70;1.27;;;;;;;6.16;100.00;98811.25;5045094;28;20032;-78
2022/03/11 02:44:36;;;;;;;11.38;2.03;;;;;;;6.10;100.00;98800.53;5048416;28;20107;-79
2022/03/11 02:47:02;;;;;;;9.50;1.67;;;;;;;6.16;100.00;98805.91;5050340;28;20051;-79
2022/03/11 02:49:28;;;;;;;4.32;1.50;;;;;;;6.08;100.00;98798.06;5032532;28;20553;-78
2022/03/11 02:51:56;;;;;;;5.97;1.70;;;;;;;6.13;100.00;98808.16;5049616;28;20032;-79
2022/03/11 02:54:23;;;;;;;6.47;1.67;;;;;;;6.08;100.00;98802.56;5047836;28;21153;-78
2022/03/11 02:56:49;;;;;;;2.25;1.23;;;;;;;6.08;100.00;98782.06;5051086;28;20128;-79
2022/03/11 02:59:14;;;;;;;9.88;1.77;;;;;;;6.05;100.00;98773.63;5032530;28;20131;-78
2022/03/11 03:01:40;;;;;;;7.70;1.48;;;;;;;6.03;100.00;98762.31;5048072;28;20029;-79
2022/03/11 03:04:06;;;;;;;7.28;1.25;;;;;;;6.00;100.00;98755.53;5066362;28;20055;-79
2022/03/11 03:06:31;;;;;;;8.07;1.05;;;;;;;5.77;100.00;98728.25;5040173;28;20055;-80
2022/03/11 03:08:57;;;;;;;5.40;1.45;;;;;;;6.00;100.00;98746.69;5029751;28;20135;-79
2022/03/11 03:11:23;;;;;;;5.80;1.17;;;;;;;5.95;100.00;98749.94;5055899;28;20047;-79
2022/03/11 03:13:48;;;;;;;11.63;1.63;;;;;;;5.98;100.00;98754.06;5047600;28;20075;-79
2022/03/11 03:16:14;;;;;;;10.10;2.65;;;;;;;6.03;100.00;98740.97;5061027;28;20044;-79
2022/03/11 03:18:39;;;;;;;6.65;1.55;;;;;;;6.06;100.00;98759.25;5033734;28;20039;-79
2022/03/11 03:21:05;;;;;;;5.85;1.58;;;;;;;6.06;100.00;98741.41;5059697;28;20193;-78
2022/03/11 03:23:31;;;;;;;4.68;1.40;;;;;;;6.10;100.00;98742.66;5049960;28;20064;-79
2022/03/11 03:25:56;;;;;;;4.93;1.05;;;;;;;6.07;100.00;98737.72;5049996;28;20429;-79
2022/03/11 03:28:22;;;;;;;3.00;1.58;;;;;;;6.11;100.00;98722.97;5065196;28;20047;-79
2022/03/11 03:30:48;;;;;;;13.93;1.60;;;;;;;6.05;100.00;98723.75;5051242;28;20024;-79
2022/03/11 03:33:13;;;;;;;9.05;2.05;;;;;;;5.93;100.00;98702.16;5052611;28;20540;-79
2022/03/11 03:35:39;;;;;;;19.30;2.22;;;;;;;5.94;100.00;98701.13;5067364;28;20036;-80
2022/03/11 03:38:04;;;;;;;7.50;2.47;;;;;;;5.98;100.00;98700.72;5047589;28;20088;-79
2022/03/11 03:40:30;;;;;;;13.18;1.67;;;;;;;6.00;100.00;98704.84;5067203;28;20032;-79
2022/03/11 03:42:58;;;;;;;6.30;1.48;;;;;;;6.00;100.00;98704.03;5050300;28;20085;-79
2022/03/11 03:45:24;;;;;;;5.90;1.80;;;;;;;6.03;100.00;98704.44;5046096;28;20555;-79
2022/03/11 03:47:49;;;;;;;11.50;1.80;;;;;;;6.01;100.00;98705.69;5048754;28;20033;-78
2022/03/11 03:50:15;;;;;;;6.95;2.00;;;;;;;6.02;100.00;98685.97;5064806;28;20039;-79
2022/03/11 03:52:41;;;;;;;9.23;2.15;;;;;;;5.99;100.00;98675.72;5064946;28;20039;-79
2022/03/11 03:55:14;;;;;;;5.93;1.70;;;;;;;5.93;100.00;98670.13;5044367;28;20116;-79
2022/03/11 03:57:39;;;;;;;9.82;2.00;;;;;;;5.95;100.00;98672.59;5045970;28;20067;-79
2022/03/11 04:00:06;;;;;;;7.82;1.98;;;;;;;5.90;100.00;98669.66;5064524;28;20600;-79
2022/03/11 04:02:32;;;;;;;5.03;1.77;;;;;;;5.89;100.00;98660.03;5042445;28;20031;-80
2022/03/11 04:04:58;;;;;;;9.40;2.55;;;;;;;5.91;100.00;98657.97;5046232;28;20028;-80
2022/03/11 04:07:24;;;;;;;9.55;1.77;;;;;;;5.87;100.00;98648.72;5065476;28;20033;-78
2022/03/11 04:09:49;;;;;;;19.48;3.28;;;;;;;5.90;100.00;98634.97;5065259;28;20083;-80
2022/03/11 04:12:15;;;;;;;9.82;1.48;;;;;;;5.89;100.00;98641.34;5033229;28;20389;-78
2022/03/11 04:14:41;;;;;;;10.00;2.60;;;;;;;5.84;100.00;98630.44;5063906;28;20520;-79
2022/03/11 04:17:07;;;;;;;10.73;2.72;;;;;;;5.88;100.00;98627.19;5048727;28;20029;-78
2022/03/11 04:19:33;;;;;;;9.00;1.65;;;;;;;5.89;100.00;98636.84;5032155;28;20029;-79
2022/03/11 04:21:59;;;;;;;8.27;2.38;;;;;;;5.88;100.00;98615.72;5047826;28;20047;-79
2022/03/11 04:24:25;;;;;;;5.63;1.80;;;;;;;5.82;100.00;98612.00;5064266;28;20044;-79
2022/03/11 04:26:50;;;;;;;5.95;1.48;;;;;;;5.86;100.00;98617.75;5032600;28;20033;-78
2022/03/11 04:29:16;;;;;;;3.97;1.40;;;;;;;5.87;100.00;98609.53;5034491;28;20120;-80
2022/03/11 04:31:42;;;;;;;6.55;1.50;;;;;;;5.89;100.00;98609.34;5064315;28;20528;-78
2022/03/11 04:34:08;;;;;;;4.80;1.20;;;;;;;5.86;100.00;98601.75;5064088;28;20456;-79
2022/03/11 04:36:38;;;;;;;2.55;0.90;;;;;;;5.90;100.00;98600.31;5064295;28;20477;-79
2022/03/11 04:39:07;;;;;;;5.40;1.55;;;;;;;5.90;100.00;98595.81;5060451;28;20097;-79
2022/03/11 04:41:34;;;;;;;3.40;0.98;;;;;;;5.89;100.00;98585.34;5049991;28;20032;-78
2022/03/11 04:43:59;;;;;;;1.08;0.93;;;;;;;5.89;100.00;98588.81;5034269;28;20059;-78
2022/03/11 04:46:25;;;;;;;0.60;0.60;;;;;;;5.92;100.00;98584.94;5067026;28;20346;-79
2022/03/11 04:48:51;;;;;;;2.30;0.70;;;;;;;5.92;100.00;98579.59;5047642;28;20036;-78
2022/03/11 04:51:16;;;;;;;0.77;0.77;;;;;;;5.94;100.00;98589.09;5030104;28;20594;-78
2022/03/11 04:53:42;;;;;;;0.50;0.50;;;;;;;5.91;100.00;98578.78;5060554;28;20071;-79
2022/03/11 04:56:08;;;;;;;0.50;0.50;;;;;;;5.91;100.00;98572.63;5029295;28;20036;-79
2022/03/11 04:58:33;;;;;;;0.60;0.60;;;;;;;5.85;100.00;98565.44;5023272;28;20044;-80
2022/03/11 05:00:59;;;;;;;0.47;0.47;;;;;;;5.91;100.00;98556.63;5059527;28;20028;-78
2022/03/11 05:03:25;;;;;;;3.10;0.80;;;;;;;5.92;100.00;98563.59;5064428;28;20032;-78
2022/03/11 05:05:51;;;;;;;0.47;0.47;;;;;;;5.91;100.00;98561.97;5031982;28;20393;-79
2022/03/11 05:08:17;;;;;;;0.40;0.40;;;;;;;5.88;100.00;98549.03;5042004;28;20036;-79
2022/03/11 05:10:42;;;;;;;0.85;0.60;;;;;;;5.89;100.00;98548.81;5046509;28;20048;-79
2022/03/11 05:13:08;;;;;;;0.50;0.50;;;;;;;5.90;100.00;98537.13;5066826;28;20526;-78
2022/03/11 05:15:37;;;;;;;0.40;0.40;;;;;;;5.80;100.00;98518.03;5031372;28;20167;-78
2022/03/11 05:18:04;;;;;;;0.40;0.40;;;;;;;5.94;100.00;98534.91;5066007;28;20036;-78
2022/03/11 05:20:30;;;;;;;0.40;0.40;;;;;;;5.89;100.00;98526.66;5063380;28;20077;-78
2022/03/11 05:22:56;;;;;;;0.40;0.40;;;;;;;5.91;100.00;98528.09;5062428;28;20048;-79
2022/03/11 05:25:22;;;;;;;0.40;0.40;;;;;;;5.84;100.00;98503.25;5045927;28;20037;-79
2022/03/11 05:27:47;;;;;;;0.40;0.40;;;;;;;5.93;100.00;98520.75;5046035;28;20086;-78
2022/03/11 05:30:13;;;;;;;0.40;0.40;;;;;;;5.92;100.00;98515.59;5034216;28;20458;-78
2022/03/11 05:32:41;;;;;;;0.40;0.40;;;;;;;5.93;100.00;98502.09;5024898;28;20029;-79
2022/03/11 05:35:07;;;;;;;0.50;0.50;;;;;;;5.96;100.00;98506.22;5047547;28;20029;-78
2022/03/11 05:37:34;;;;;;;0.50;0.50;;;;;;;5.98;100.00;98495.31;5064576;28;20062;-78
2022/03/11 05:40:00;;;;;;;0.40;0.40;;;;;;;6.03;100.00;98500.88;5072664;28;20055;-79
2022/03/11 05:42:25;;;;;;;0.68;0.65;;;;;;;6.03;100.00;98484.88;5069813;28;20453;-78
2022/03/11 05:44:51;;;;;;;0.50;0.50;;;;;;;6.04;100.00;98483.84;5036485;28;20029;-79
2022/03/11 05:47:16;;;;;;;0.40;0.40;;;;;;;6.04;100.00;98470.53;5035391;28;20041;-79
2022/03/11 05:49:42;;;;;;;0.40;0.40;;;;;;;6.07;100.00;98467.44;5046010;28;20465;-79
2022/03/11 05:52:07;;;;;;;0.30;0.30;;;;;;;6.11;100.00;98476.66;5042365;28;20060;-79
2022/03/11 05:54:34;;;;;;;0.40;0.40;;;;;;;6.10;100.00;98454.50;5053096;28;20414;-78
2022/03/11 05:57:01;;;;;;;0.40;0.40;;;;;;;5.99;100.00;98444.44;5052497;28;20480;-78
2022/03/11 05:59:29;;;;;;;0.50;0.50;;;;;;;6.19;100.00;98456.97;5038656;28;20041;-78
2022/03/11 06:01:55;;;;;;;0.40;0.40;;;;;;;6.19;100.00;98449.78;5032342;28;20098;-78
2022/03/11 06:04:21;;;;;;;0.50;0.50;;;;;;;6.22;100.00;98453.91;5063122;28;20028;-79
2022/03/11 06:06:47;;;;;;;0.50;0.50;;;;;;;6.24;100.00;98438.50;5034119;28;20036;-78
2022/03/11 06:09:12;;;;;;;0.40;0.40;;;;;;;6.29;100.00;98436.88;5067806;28;20036;-79
2022/03/11 06:11:39;;;;;;;0.50;0.50;;;;;;;6.32;100.00;98446.31;5041119;28;20029;-79
2022/03/11 06:14:06;;;;;;;0.40;0.40;;;;;;;6.37;100.00;98438.50;5023835;28;20474;-79
2022/03/11 06:16:32;;;;;;;0.40;0.40;;;;;;;6.38;100.00;98441.00;5046108;28;20024;-79
2022/03/11 06:18:57;;;;;;;0.40;0.40;;;;;;;6.45;100.00;98432.97;5044732;28;20025;-78
2022/03/11 06:21:23;;;;;;;0.40;0.40;;;;;;;6.53;100.00;98429.25;5047144;28;20068;-77
2022/03/11 06:23:48;;;;;;;1.85;0.60;;;;;;;6.60;100.00;98432.75;5044526;28;20456;-78
2022/03/11 06:26:14;;;;;;;0.45;0.45;;;;;;;6.61;100.00;98429.03;5058575;28;20032;-78
2022/03/11 06:28:40;;;;;;;0.40;0.40;;;;;;;6.60;100.00;98412.22;5029370;28;20054;-78
2022/03/11 06:31:08;;;;;;;0.40;0.40;;;;;;;6.67;100.00;98422.06;5062167;28;20175;-78
2022/03/11 06:33:34;;;;;;;0.40;0.40;;;;;;;6.71;100.00;98418.75;5058901;28;20547;-79
2022/03/11 06:35:59;;;;;;;0.40;0.40;;;;;;;6.73;100.00;98415.91;5058346;28;20055;-79
2022/03/11 06:38:25;;;;;;;0.40;0.40;;;;;;;6.78;100.00;98410.75;5057142;28;20038;-77
2022/03/11 06:40:51;;;;;;;0.45;0.45;;;;;;;6.83;100.00;98405.59;5045502;28;20040;-79
2022/03/11 06:43:18;;;;;;;0.40;0.40;;;;;;;6.86;100.00;98399.84;5075807;28;20056;-78
2022/03/11 06:45:43;;;;;;;0.70;0.70;;;;;;;6.90;100.00;98403.72;5058398;28;20071;-80
2022/03/11 06:48:09;;;;;;;0.40;0.40;;;;;;;6.91;100.00;98400.03;5043231;28;20059;-78
2022/03/11 06:50:34;;;;;;;0.40;0.40;;;;;;;6.94;100.00;98404.13;5049788;28;20095;-78
2022/03/11 06:53:00;;;;;;;0.40;0.40;;;;;;;6.96;100.00;98399.38;5036550;28;20036;-79
2022/03/11 06:55:26;;;;;;;0.65;0.65;;;;;;;6.99;100.00;98402.47;5030703;28;20406;-79
2022/03/11 06:57:51;;;;;;;0.40;0.40;;;;;;;7.01;100.00;98396.91;5051756;28;20025;-78
2022/03/11 07:00:17;;;;;;;0.40;0.40;;;;;;;7.01;100.00;98389.72;5040747;28;20130;-80
2022/03/11 07:02:42;;;;;;;0.40;0.40;;;;;;;7.01;100.00;98395.06;5067682;28;20032;-79
2022/03/11 07:05:09;;;;;;;0.43;0.43;;;;;;;7.06;100.00;98402.44;5049010;28;20029;-80
2022/03/11 07:07:39;;;;;;;0.40;0.40;;;;;;;7.00;100.00;98380.06;5052841;28;20122;-78
2022/03/11 07:10:07;;;;;;;0.40;0.40;;;;;;;7.07;100.00;98396.09;5031709;28;20474;-78
2022/03/11 07:12:35;;;;;;;0.40;0.40;;;;;;;7.09;100.00;98387.84;5036539;28;20079;-78
2022/03/11 07:15:01;;;;;;;0.40;0.40;;;;;;;7.10;100.00;98389.50;5054519;28;20043;-78
2022/03/11 07:17:27;;;;;;;0.40;0.40;;;;;;;7.12;100.00;98398.94;5064846;28;20094;-78
2022/03/11 07:19:53;;;;;;;0.40;0.40;;;;;;;7.05;100.00;98385.59;5051481;28;20131;-79
2022/03/11 07:22:19;;;;;;;0.40;0.40;;;;;;;7.13;100.00;98395.22;5032063;28;20117;-79
2022/03/11 07:24:45;;;;;;;0.40;0.40;;;;;;;7.16;100.00;98397.47;5049377;28;20074;-78
2022/03/11 07:27:11;;;;;;;0.40;0.40;;;;;;;7.14;100.00;98380.00;5044049;28;20546;-78
2022/03/11 07:29:37;;;;;;;0.40;0.40;;;;;;;7.19;100.00;98390.88;5045034;28;20029;-78
2022/03/11 07:32:04;;;;;;;0.40;0.40;;;;;;;7.22;100.00;98387.78;5065209;28;20041;-78
2022/03/11 07:34:29;;;;;;;0.40;0.40;;;;;;;7.22;100.00;98387.78;5034800;28;20388;-78
2022/03/11 07:36:55;;;;;;;0.50;0.50;;;;;;;7.25;100.00;98376.66;5048863;28;20501;-77
2022/03/11 07:39:21;;;;;;;0.40;0.40;;;;;;;7.27;100.00;98378.09;5037201;28;20032;-78
2022/03/11 07:41:49;;;;;;;0.50;0.50;;;;;;;7.33;100.00;98379.13;5045306;28;20489;-79
2022/03/11 07:44:15;;;;;;;0.40;0.40;;;;;;;7.36;100.00;98378.69;5075031;28;20119;-78
2022/03/11 07:46:42;;;;;;;0.50;0.50;;;;;;;7.37;100.00;98374.97;5056811;28;20434;-79
2022/03/11 07:49:09;;;;;;;0.40;0.40;;;;;;;7.36;100.00;98368.00;5068173;28;20104;-78
2022/03/11 07:51:35;;;;;;;0.40;0.40;;;;;;;7.26;100.00;98351.59;5057521;28;20033;-78
2022/03/11 07:54:01;;;;;;;0.50;0.50;;;;;;;7.38;100.00;98371.28;5065441;28;20479;-78
2022/03/11 07:56:27;;;;;;;0.40;0.40;;;;;;;7.39;100.00;98375.56;5026229;28;20477;-78
2022/03/11 07:58:59;;;;;;;0.40;0.40;;;;;;;7.42;100.00;98369.00;5028235;28;20032;-79
2022/03/11 08:01:25;;;;;;;0.50;0.50;;;;;;;7.44;100.00;98378.44;5034157;28;20097;-78
2022/03/11 08:03:51;;;;;;;0.70;0.70;;;;;;;7.52;100.00;98380.03;5050547;28;20048;-78
2022/03/11 08:06:19;;;;;;;0.40;0.40;;;;;;;7.55;100.00;98379.59;5047987;28;20050;-78
2022/03/11 08:08:45;;;;;;;0.40;0.40;;;;;;;7.52;100.00;98371.22;5054621;28;20037;-78
2022/03/11 08:11:11;;;;;;;0.40;0.40;;;;;;;7.51;100.00;98364.19;5066846;28;20025;-78
2022/03/11 08:13:37;;;;;;;0.40;0.40;;;;;;;7.50;100.00;98368.72;5046505;28;20067;-79
2022/03/11 08:16:03;;;;;;;0.40;0.40;;;;;;;7.53;100.00;98378.19;5037148;28;20118;-79
2022/03/11 08:18:29;;;;;;;0.40;0.40;;;;;;;7.53;100.00;98373.66;5055018;28;20040;-78
2022/03/11 08:20:54;;;;;;;0.43;0.43;;;;;;;7.57;100.00;98357.97;5035130;28;20036;-78
2022/03/11 08:23:20;;;;;;;0.50;0.50;;;;;;;7.60;100.00;98349.56;5069742;28;20082;-79
2022/03/11 08:25:46;;;;;;;0.50;0.50;;;;;;;7.71;100.00;98360.38;5039326;28;20032;-79
2022/03/11 08:28:13;;;;;;;0.40;0.40;;;;;;;7.75;100.00;98376.78;5060310;28;20478;-78
2022/03/11 08:30:40;;;;;;;0.40;0.40;;;;;;;7.78;100.00;98378.22;5053411;28;20032;-78
2022/03/11 08:33:07;;;;;;;0.50;0.50;;;;;;;7.77;100.00;98373.91;5049349;28;20040;-80
2022/03/11 08:35:33;;;;;;;0.40;0.40;;;;;;;7.90;100.00;98381.84;5060620;28;20047;-79
2022/03/11 08:38:06;;;;;;;0.40;0.40;;;;;;;8.01;100.00;98383.00;5035351;28;20512;-79
2022/03/11 08:40:35;;;;;;;0.40;0.40;;;;;;;8.14;100.00;98380.22;5063819;28;20033;-79
2022/03/11 08:43:01;;;;;;;0.40;0.40;;;;;;;8.21;100.00;98381.00;5052961;28;20051;-79
2022/03/11 08:45:27;;;;;;;0.40;0.40;;;;;;;8.26;100.00;98370.47;5032696;28;20051;-79
2022/03/11 08:47:53;;;;;;;0.50;0.50;;;;;;;8.19;100.00;98360.84;5062938;28;20402;-78
2022/03/11 08:50:25;;;;;;;0.50;0.50;;;;;;;8.06;100.00;98346.53;5048718;28;20040;-79
2022/03/11 08:52:51;;;;;;;0.40;0.40;;;;;;;8.33;100.00;98378.41;5040541;28;20032;-79
2022/03/11 08:55:16;;;;;;;0.40;0.40;;;;;;;8.34;100.00;98380.06;5026463;28;20041;-79
2022/03/11 08:57:48;;;;;;;0.40;0.40;;;;;;;8.28;100.00;98380.94;5032583;28;20024;-76
2022/03/11 09:00:16;;;;;;;0.40;0.40;;;;;;;8.36;100.00;98394.88;5061964;28;20037;-77
2022/03/11 09:02:45;;;;;;;0.40;0.40;;;;;;;8.41;100.00;98399.59;5032741;28;20665;-78
2022/03/11 09:05:11;;;;;;;0.40;0.40;;;;;;;8.48;100.00;98394.19;5047707;28;20052;-77
2022/03/11 09:07:39;;;;;;;0.40;0.40;;;;;;;8.54;100.00;98393.28;5026605;28;20035;-78
2022/03/11 09:10:09;;;;;;;0.40;0.40;;;;;;;8.59;100.00;98394.28;5061650;28;20044;-78
2022/03/11 09:12:35;;;;;;;0.40;0.40;;;;;;;8.64;100.00;98398.16;5032441;28;20029;-78
2022/03/11 09:15:01;;;;;;;0.50;0.50;;;;;;;8.66;100.00;98396.91;5047682;28;20037;-78
2022/03/11 09:17:28;;;;;;;0.40;0.40;;;;;;;8.59;100.00;98383.56;5065907;28;20037;-77
2022/03/11 09:19:54;;;;;;;0.50;0.50;;;;;;;8.68;100.00;98386.78;5046341;28;20075;-78
2022/03/11 09:22:20;;;;;;;0.40;0.40;;;;;;;8.72;100.00;98379.13;5035093;28;20044;-78
2022/03/11 09:24:46;;;;;;;0.40;0.40;;;;;;;8.82;100.00;98386.66;5052498;28;20139;-78
2022/03/11 09:27:12;;;;;;;0.40;0.40;;;;;;;8.91;100.00;98385.28;5036433;28;20120;-80
2022/03/11 09:29:39;;;;;;;0.43;0.43;;;;;;;8.83;100.00;98382.91;5034416;28;20551;-81
2022/03/11 09:32:05;;;;;;;0.40;0.40;;;;;;;9.02;100.00;98408.66;5036930;28;20501;-82
2022/03/11 09:34:31;;;;;;;0.40;0.40;;;;;;;8.91;100.00;98402.19;5052404;28;20045;-83
2022/03/11 09:36:57;;;;;;;0.40;0.40;;;;;;;8.84;100.00;98397.94;5040825;28;20028;-81
2022/03/11 09:39:23;;;;;;;0.40;0.40;;;;;;;9.00;100.00;98416.13;5035438;28;20496;-81
2022/03/11 09:41:48;;;;;;;0.40;0.40;;;;;;;9.05;100.00;98434.22;5063594;28;20044;-82
2022/03/11 09:44:16;;;;;;;0.40;0.40;;;;;;;9.01;100.00;98442.69;5035234;28;20044;-83
2022/03/11 09:46:42;;;;;;;0.40;0.40;;;;;;;8.96;100.00;98441.72;5039994;28;20048;-82
2022/03/11 09:49:08;;;;;;;0.40;0.40;;;;;;;8.83;100.00;98436.50;5071178;28;20030;-82
2022/03/11 09:51:35;;;;;;;0.40;0.40;;;;;;;8.70;100.00;98416.00;5056279;28;20083;-82
2022/03/11 09:54:01;;;;;;;0.40;0.40;;;;;;;8.70;100.00;98422.19;5068716;28;20025;-82
2022/03/11 09:56:27;;;;;;;0.40;0.40;;;;;;;8.71;100.00;98425.72;5052181;28;20043;-82
2022/03/11 09:58:56;;;;;;;0.40;0.40;;;;;;;8.78;100.00;98437.97;5051762;28;20055;-82
2022/03/11 10:01:22;;;;;;;0.40;0.40;;;;;;;8.56;100.00;98416.16;5051080;28;20111;-82
2022/03/11 10:03:48;;;;;;;0.40;0.40;;;;;;;8.65;100.00;98416.66;5066731;28;20111;-82
2022/03/11 10:06:13;;;;;;;0.40;0.40;;;;;;;8.73;100.00;98423.59;5043726;28;20033;-83
2022/03/11 10:08:42;;;;;;;0.40;0.40;;;;;;;8.80;100.00;98443.94;5066311;28;20090;-81
2022/03/11 10:11:24;;;;;;;0.40;0.40;;;;;;;8.89;100.00;98449.00;5065838;28;20040;-82
2022/03/11 10:13:51;;;;;;;0.40;0.40;;;;;;;8.90;100.00;98438.09;5067567;28;20435;-80
2022/03/11 10:16:22;;;;;;;0.40;0.40;;;;;;;8.94;100.00;98451.84;5071003;28;20082;-82
2022/03/11 10:18:59;;;;;;;0.40;0.40;;;;;;;8.91;100.00;98454.97;5062438;28;20101;-81
2022/03/11 10:21:35;;;;;;;0.40;0.40;;;;;;;8.90;100.00;98442.63;5074347;28;20025;-81
2022/03/11 10:24:12;;;;;;;0.50;0.50;;;;;;;8.91;100.00;98445.06;5069995;28;20071;-80
2022/03/11 10:26:40;;;;;;;1.67;1.67;;;;;;;8.98;100.00;98445.03;5055491;28;20094;-79
2022/03/11 10:29:10;;;;;;;0.40;0.40;;;;;;;9.15;100.00;98447.91;5056744;28;20032;-82
2022/03/11 10:31:42;;;;;;;0.40;0.40;;;;;;;9.16;100.00;98445.03;5054640;28;20492;-80
2022/03/11 10:34:29;;;;;;;0.40;0.40;;;;;;;9.08;100.00;98428.44;5050224;28;20064;-80
2022/03/11 10:37:04;;;;;;;0.40;0.40;;;;;;;9.20;100.00;98448.06;5063367;28;20186;-84
2022/03/11 10:39:36;;;;;;;0.40;0.40;;;;;;;9.28;100.00;98450.44;5061574;28;20405;-82
2022/03/11 10:42:23;;;;;;;0.40;0.40;;;;;;;9.41;100.00;98455.66;5074125;28;20081;-78
2022/03/11 10:45:06;;;;;;;0.40;0.40;;;;;;;9.39;100.00;98449.72;5052412;28;20398;-85
2022/03/11 10:47:36;;;;;;;0.40;0.40;;;;;;;9.35;100.00;98447.72;5067667;28;20505;-83
2022/03/11 10:50:08;;;;;;;0.50;0.50;;;;;;;9.36;100.00;98444.78;5054756;28;20064;-82
2022/03/11 10:52:47;;;;;;;0.43;0.43;;;;;;;9.39;100.00;98446.19;5070020;28;20543;-80
2022/03/11 10:55:23;;;;;;;0.40;0.40;;;;;;;9.42;100.00;98446.59;5071672;28;20035;-79
2022/03/11 10:57:55;;;;;;;0.40;0.40;;;;;;;9.41;100.00;98439.56;5061679;28;20062;-80
2022/03/11 11:00:23;;;;;;;0.50;0.50;;;;;;;9.42;100.00;98445.75;5054443;28;20037;-79
2022/03/11 11:02:50;;;;;;;0.40;0.40;;;;;;;9.38;100.00;98458.78;5071077;28;20082;-78
2022/03/11 11:05:16;;;;;;;0.50;0.50;;;;;;;9.31;100.00;98459.91;5074482;28;20025;-80
2022/03/11 11:07:43;;;;;;;0.40;0.40;;;;;;;9.23;100.00;98461.03;5042891;28;20436;-78
2022/03/11 11:10:10;;;;;;;0.40;0.40;;;;;;;9.25;100.00;98467.00;5037513;28;20549;-79
2022/03/11 11:12:36;;;;;;;0.40;0.40;;;;;;;9.38;100.00;98461.47;5068962;28;20036;-80
2022/03/11 11:15:06;;;;;;;0.50;0.50;;;;;;;9.57;100.00;98464.16;5035870;28;20552;-80
2022/03/11 11:17:32;;;;;;;0.50;0.50;;;;;;;9.71;100.00;98467.47;5068351;28;20319;-81
2022/03/11 11:20:00;;;;;;;0.40;0.40;;;;;;;9.64;100.00;98465.72;5057750;28;20481;-79
2022/03/11 11:22:27;;;;;;;0.50;0.50;;;;;;;9.68;100.00;98480.31;5053971;28;20143;-79
2022/03/11 11:24:56;;;;;;;0.50;0.50;;;;;;;9.69;100.00;98468.53;5052639;28;20032;-80
2022/03/11 11:27:22;;;;;;;0.50;0.50;;;;;;;9.73;100.00;98476.94;5041973;28;20057;-80
2022/03/11 11:29:49;;;;;;;0.50;0.50;;;;;;;9.69;100.00;98479.25;5067706;28;20047;-81
2022/03/11 11:32:16;;;;;;;0.50;0.50;;;;;;;9.68;100.00;98471.44;5063973;28;20028;-80